sensor_id;sensor_type;location;lat;lon;timestamp;P1;durP1;ratioP1;P2;durP2;ratioP2
68300;SDS011;55146;47.468;18.806;2023-07-16T00:00:26;12.27;;;9.73;;
68300;SDS011;55146;47.468;18.806;2023-07-16T00:02:52;10.30;;;9.20;;
68300;SDS011;55146;47.468;18.806;2023-07-16T00:05:17;10.20;;;9.10;;
68300;SDS011;55146;47.468;18.806;2023-07-16T00:07:43;11.10;;;10.00;;
68300;SDS011;55146;47.468;18.806;2023-07-16T00:10:08;10.73;;;9.33;;
68300;SDS011;55146;47.468;18.806;2023-07-16T00:12:34;10.63;;;8.93;;
68300;SDS011;55146;47.468;18.806;2023-07-16T00:14:59;11.90;;;9.43;;
68300;SDS011;55146;47.468;18.806;2023-07-16T00:17:24;12.67;;;10.73;;
68300;SDS011;55146;47.468;18.806;2023-07-16T00:19:49;12.05;;;9.93;;
68300;SDS011;55146;47.468;18.806;2023-07-16T00:22:15;12.70;;;9.93;;
68300;SDS011;55146;47.468;18.806;2023-07-16T00:24:40;12.60;;;9.33;;
68300;SDS011;55146;47.468;18.806;2023-07-16T00:27:05;10.97;;;9.83;;
68300;SDS011;55146;47.468;18.806;2023-07-16T00:29:31;11.33;;;9.30;;
68300;SDS011;55146;47.468;18.806;2023-07-16T00:31:56;12.30;;;10.07;;
68300;SDS011;55146;47.468;18.806;2023-07-16T00:34:21;14.13;;;10.73;;
68300;SDS011;55146;47.468;18.806;2023-07-16T00:36:47;11.40;;;9.37;;
68300;SDS011;55146;47.468;18.806;2023-07-16T00:39:12;10.30;;;9.17;;
68300;SDS011;55146;47.468;18.806;2023-07-16T00:41:37;10.95;;;9.88;;
68300;SDS011;55146;47.468;18.806;2023-07-16T00:44:03;11.30;;;9.77;;
68300;SDS011;55146;47.468;18.806;2023-07-16T00:46:28;11.00;;;9.83;;
68300;SDS011;55146;47.468;18.806;2023-07-16T00:48:54;12.53;;;10.13;;
68300;SDS011;55146;47.468;18.806;2023-07-16T00:51:19;11.38;;;10.05;;
68300;SDS011;55146;47.468;18.806;2023-07-16T00:53:47;10.98;;;9.82;;
68300;SDS011;55146;47.468;18.806;2023-07-16T00:56:13;10.43;;;8.93;;
68300;SDS011;55146;47.468;18.806;2023-07-16T00:58:42;11.00;;;9.38;;
68300;SDS011;55146;47.468;18.806;2023-07-16T01:01:08;10.93;;;9.83;;
68300;SDS011;55146;47.468;18.806;2023-07-16T01:03:33;10.88;;;8.63;;
68300;SDS011;55146;47.468;18.806;2023-07-16T01:06:08;11.53;;;9.40;;
68300;SDS011;55146;47.468;18.806;2023-07-16T01:08:45;13.75;;;11.15;;
68300;SDS011;55146;47.468;18.806;2023-07-16T01:11:12;9.43;;;8.00;;
68300;SDS011;55146;47.468;18.806;2023-07-16T01:13:39;12.37;;;10.35;;
68300;SDS011;55146;47.468;18.806;2023-07-16T01:16:04;10.57;;;9.48;;
68300;SDS011;55146;47.468;18.806;2023-07-16T01:18:30;11.20;;;9.30;;
68300;SDS011;55146;47.468;18.806;2023-07-16T01:20:55;10.07;;;8.88;;
68300;SDS011;55146;47.468;18.806;2023-07-16T01:23:26;12.37;;;11.07;;
68300;SDS011;55146;47.468;18.806;2023-07-16T01:31:20;13.62;;;9.98;;
68300;SDS011;55146;47.468;18.806;2023-07-16T01:33:48;16.50;;;10.23;;
68300;SDS011;55146;47.468;18.806;2023-07-16T01:36:16;13.25;;;10.00;;
68300;SDS011;55146;47.468;18.806;2023-07-16T01:38:43;11.12;;;9.13;;
68300;SDS011;55146;47.468;18.806;2023-07-16T01:41:10;12.77;;;9.10;;
68300;SDS011;55146;47.468;18.806;2023-07-16T01:43:36;12.15;;;9.18;;
68300;SDS011;55146;47.468;18.806;2023-07-16T01:46:01;12.90;;;10.17;;
68300;SDS011;55146;47.468;18.806;2023-07-16T01:48:30;12.37;;;10.13;;
68300;SDS011;55146;47.468;18.806;2023-07-16T01:50:58;12.43;;;8.77;;
68300;SDS011;55146;47.468;18.806;2023-07-16T01:53:24;12.40;;;9.77;;
68300;SDS011;55146;47.468;18.806;2023-07-16T01:55:49;11.57;;;9.83;;
68300;SDS011;55146;47.468;18.806;2023-07-16T01:58:15;16.00;;;10.88;;
68300;SDS011;55146;47.468;18.806;2023-07-16T02:00:41;10.57;;;8.70;;
68300;SDS011;55146;47.468;18.806;2023-07-16T02:03:06;12.40;;;9.83;;
68300;SDS011;55146;47.468;18.806;2023-07-16T02:05:31;11.57;;;9.00;;
68300;SDS011;55146;47.468;18.806;2023-07-16T02:07:57;11.35;;;9.35;;
68300;SDS011;55146;47.468;18.806;2023-07-16T02:10:22;14.33;;;10.90;;
68300;SDS011;55146;47.468;18.806;2023-07-16T02:12:48;11.50;;;9.97;;
68300;SDS011;55146;47.468;18.806;2023-07-16T02:15:13;10.40;;;8.40;;
68300;SDS011;55146;47.468;18.806;2023-07-16T02:17:39;10.82;;;8.55;;
68300;SDS011;55146;47.468;18.806;2023-07-16T02:20:04;11.63;;;8.77;;
68300;SDS011;55146;47.468;18.806;2023-07-16T02:22:31;10.40;;;9.18;;
68300;SDS011;55146;47.468;18.806;2023-07-16T02:24:56;12.97;;;9.07;;
68300;SDS011;55146;47.468;18.806;2023-07-16T02:27:21;12.03;;;9.10;;
68300;SDS011;55146;47.468;18.806;2023-07-16T02:29:47;10.30;;;8.43;;
68300;SDS011;55146;47.468;18.806;2023-07-16T02:32:12;10.65;;;8.20;;
68300;SDS011;55146;47.468;18.806;2023-07-16T02:34:38;10.67;;;9.50;;
68300;SDS011;55146;47.468;18.806;2023-07-16T02:37:03;11.43;;;10.20;;
68300;SDS011;55146;47.468;18.806;2023-07-16T02:39:28;11.27;;;9.73;;
68300;SDS011;55146;47.468;18.806;2023-07-16T02:41:54;10.80;;;9.70;;
68300;SDS011;55146;47.468;18.806;2023-07-16T02:44:19;11.25;;;8.75;;
68300;SDS011;55146;47.468;18.806;2023-07-16T02:46:44;12.77;;;9.23;;
68300;SDS011;55146;47.468;18.806;2023-07-16T02:49:10;12.17;;;9.87;;
68300;SDS011;55146;47.468;18.806;2023-07-16T02:51:35;11.87;;;10.03;;
68300;SDS011;55146;47.468;18.806;2023-07-16T02:54:01;11.00;;;7.97;;
68300;SDS011;55146;47.468;18.806;2023-07-16T02:56:26;11.10;;;9.07;;
68300;SDS011;55146;47.468;18.806;2023-07-16T02:58:51;10.07;;;8.23;;
68300;SDS011;55146;47.468;18.806;2023-07-16T03:01:17;11.43;;;9.57;;
68300;SDS011;55146;47.468;18.806;2023-07-16T03:03:42;11.47;;;10.03;;
68300;SDS011;55146;47.468;18.806;2023-07-16T03:06:07;13.40;;;10.47;;
68300;SDS011;55146;47.468;18.806;2023-07-16T03:08:33;14.47;;;9.03;;
68300;SDS011;55146;47.468;18.806;2023-07-16T03:10:59;10.63;;;8.73;;
68300;SDS011;55146;47.468;18.806;2023-07-16T03:13:24;10.83;;;9.47;;
68300;SDS011;55146;47.468;18.806;2023-07-16T03:15:50;9.83;;;8.63;;
68300;SDS011;55146;47.468;18.806;2023-07-16T03:18:17;10.85;;;9.48;;
68300;SDS011;55146;47.468;18.806;2023-07-16T03:20:43;10.93;;;9.00;;
68300;SDS011;55146;47.468;18.806;2023-07-16T03:23:09;12.30;;;9.43;;
68300;SDS011;55146;47.468;18.806;2023-07-16T03:25:34;13.80;;;9.50;;
68300;SDS011;55146;47.468;18.806;2023-07-16T03:27:59;11.67;;;9.60;;
68300;SDS011;55146;47.468;18.806;2023-07-16T03:30:25;12.67;;;10.57;;
68300;SDS011;55146;47.468;18.806;2023-07-16T03:32:50;11.87;;;9.67;;
68300;SDS011;55146;47.468;18.806;2023-07-16T03:35:15;13.87;;;10.80;;
68300;SDS011;55146;47.468;18.806;2023-07-16T03:37:41;11.27;;;10.00;;
68300;SDS011;55146;47.468;18.806;2023-07-16T03:40:13;11.43;;;9.82;;
68300;SDS011;55146;47.468;18.806;2023-07-16T03:42:39;12.43;;;10.57;;
68300;SDS011;55146;47.468;18.806;2023-07-16T03:45:05;15.15;;;9.43;;
68300;SDS011;55146;47.468;18.806;2023-07-16T03:47:31;13.80;;;10.75;;
68300;SDS011;55146;47.468;18.806;2023-07-16T03:49:57;11.80;;;9.77;;
68300;SDS011;55146;47.468;18.806;2023-07-16T03:52:22;12.03;;;8.47;;
68300;SDS011;55146;47.468;18.806;2023-07-16T03:54:49;12.27;;;9.88;;
68300;SDS011;55146;47.468;18.806;2023-07-16T03:57:15;11.77;;;9.57;;
68300;SDS011;55146;47.468;18.806;2023-07-16T03:59:40;11.50;;;9.20;;
68300;SDS011;55146;47.468;18.806;2023-07-16T04:02:06;14.57;;;10.50;;
68300;SDS011;55146;47.468;18.806;2023-07-16T04:04:32;12.03;;;9.07;;
68300;SDS011;55146;47.468;18.806;2023-07-16T04:06:57;11.35;;;9.68;;
68300;SDS011;55146;47.468;18.806;2023-07-16T04:09:23;10.50;;;8.87;;
68300;SDS011;55146;47.468;18.806;2023-07-16T04:11:49;15.68;;;8.48;;
68300;SDS011;55146;47.468;18.806;2023-07-16T04:14:14;13.17;;;9.80;;
68300;SDS011;55146;47.468;18.806;2023-07-16T04:16:39;12.73;;;10.30;;
68300;SDS011;55146;47.468;18.806;2023-07-16T04:19:05;10.70;;;9.57;;
68300;SDS011;55146;47.468;18.806;2023-07-16T04:21:30;11.40;;;9.40;;
68300;SDS011;55146;47.468;18.806;2023-07-16T04:23:55;13.05;;;9.65;;
68300;SDS011;55146;47.468;18.806;2023-07-16T04:26:21;11.33;;;10.13;;
68300;SDS011;55146;47.468;18.806;2023-07-16T04:28:46;11.37;;;9.70;;
68300;SDS011;55146;47.468;18.806;2023-07-16T04:31:11;10.67;;;9.30;;
68300;SDS011;55146;47.468;18.806;2023-07-16T04:33:37;10.77;;;9.63;;
68300;SDS011;55146;47.468;18.806;2023-07-16T04:36:02;12.40;;;8.83;;
68300;SDS011;55146;47.468;18.806;2023-07-16T04:38:28;11.60;;;8.90;;
68300;SDS011;55146;47.468;18.806;2023-07-16T04:40:53;11.10;;;8.57;;
68300;SDS011;55146;47.468;18.806;2023-07-16T04:43:18;13.80;;;9.03;;
68300;SDS011;55146;47.468;18.806;2023-07-16T04:45:44;10.30;;;8.97;;
68300;SDS011;55146;47.468;18.806;2023-07-16T04:48:11;15.68;;;8.50;;
68300;SDS011;55146;47.468;18.806;2023-07-16T04:50:38;15.15;;;9.88;;
68300;SDS011;55146;47.468;18.806;2023-07-16T04:53:04;14.23;;;8.75;;
68300;SDS011;55146;47.468;18.806;2023-07-16T04:55:34;11.20;;;9.10;;
68300;SDS011;55146;47.468;18.806;2023-07-16T04:58:00;13.52;;;8.60;;
68300;SDS011;55146;47.468;18.806;2023-07-16T05:00:27;10.63;;;8.63;;
68300;SDS011;55146;47.468;18.806;2023-07-16T05:02:53;11.52;;;8.40;;
68300;SDS011;55146;47.468;18.806;2023-07-16T05:05:18;13.13;;;9.23;;
68300;SDS011;55146;47.468;18.806;2023-07-16T05:07:43;9.63;;;8.50;;
68300;SDS011;55146;47.468;18.806;2023-07-16T05:10:09;8.90;;;7.67;;
68300;SDS011;55146;47.468;18.806;2023-07-16T05:12:34;12.83;;;8.33;;
68300;SDS011;55146;47.468;18.806;2023-07-16T05:15:00;8.80;;;7.50;;
68300;SDS011;55146;47.468;18.806;2023-07-16T05:17:25;9.10;;;7.93;;
68300;SDS011;55146;47.468;18.806;2023-07-16T05:19:51;18.47;;;9.50;;
68300;SDS011;55146;47.468;18.806;2023-07-16T05:22:16;12.43;;;8.63;;
68300;SDS011;55146;47.468;18.806;2023-07-16T05:24:41;10.67;;;8.37;;
68300;SDS011;55146;47.468;18.806;2023-07-16T05:27:07;12.80;;;8.10;;
68300;SDS011;55146;47.468;18.806;2023-07-16T05:29:32;11.30;;;7.47;;
68300;SDS011;55146;47.468;18.806;2023-07-16T05:31:58;10.03;;;8.37;;
68300;SDS011;55146;47.468;18.806;2023-07-16T05:34:23;10.43;;;7.20;;
68300;SDS011;55146;47.468;18.806;2023-07-16T05:36:48;9.67;;;8.40;;
68300;SDS011;55146;47.468;18.806;2023-07-16T05:39:14;10.33;;;8.80;;
68300;SDS011;55146;47.468;18.806;2023-07-16T05:41:39;9.90;;;8.17;;
68300;SDS011;55146;47.468;18.806;2023-07-16T05:44:06;11.35;;;7.93;;
68300;SDS011;55146;47.468;18.806;2023-07-16T05:46:32;10.27;;;7.20;;
68300;SDS011;55146;47.468;18.806;2023-07-16T05:48:58;12.25;;;7.22;;
68300;SDS011;55146;47.468;18.806;2023-07-16T05:51:23;11.63;;;6.97;;
68300;SDS011;55146;47.468;18.806;2023-07-16T05:53:49;11.35;;;7.47;;
68300;SDS011;55146;47.468;18.806;2023-07-16T05:56:14;10.33;;;6.83;;
68300;SDS011;55146;47.468;18.806;2023-07-16T05:58:40;12.23;;;7.70;;
68300;SDS011;55146;47.468;18.806;2023-07-16T06:01:06;8.68;;;6.93;;
68300;SDS011;55146;47.468;18.806;2023-07-16T06:03:32;10.35;;;7.72;;
68300;SDS011;55146;47.468;18.806;2023-07-16T06:05:57;8.10;;;6.23;;
68300;SDS011;55146;47.468;18.806;2023-07-16T06:08:23;11.60;;;7.67;;
68300;SDS011;55146;47.468;18.806;2023-07-16T06:10:49;9.45;;;7.55;;
68300;SDS011;55146;47.468;18.806;2023-07-16T06:13:15;12.37;;;6.77;;
68300;SDS011;55146;47.468;18.806;2023-07-16T06:15:41;12.07;;;7.45;;
68300;SDS011;55146;47.468;18.806;2023-07-16T06:18:07;13.33;;;7.83;;
68300;SDS011;55146;47.468;18.806;2023-07-16T06:20:32;11.60;;;7.93;;
68300;SDS011;55146;47.468;18.806;2023-07-16T06:22:58;11.03;;;7.53;;
68300;SDS011;55146;47.468;18.806;2023-07-16T06:25:23;8.30;;;6.83;;
68300;SDS011;55146;47.468;18.806;2023-07-16T06:27:48;11.63;;;7.47;;
68300;SDS011;55146;47.468;18.806;2023-07-16T06:30:14;8.73;;;6.83;;
68300;SDS011;55146;47.468;18.806;2023-07-16T06:32:39;12.25;;;7.50;;
68300;SDS011;55146;47.468;18.806;2023-07-16T06:35:04;9.77;;;6.37;;
68300;SDS011;55146;47.468;18.806;2023-07-16T06:37:30;10.40;;;7.40;;
68300;SDS011;55146;47.468;18.806;2023-07-16T06:39:55;8.80;;;6.72;;
68300;SDS011;55146;47.468;18.806;2023-07-16T06:42:21;10.40;;;8.17;;
68300;SDS011;55146;47.468;18.806;2023-07-16T06:44:46;7.93;;;6.83;;
68300;SDS011;55146;47.468;18.806;2023-07-16T06:47:12;8.67;;;7.03;;
68300;SDS011;55146;47.468;18.806;2023-07-16T06:49:38;8.67;;;6.40;;
68300;SDS011;55146;47.468;18.806;2023-07-16T06:52:03;10.57;;;7.13;;
68300;SDS011;55146;47.468;18.806;2023-07-16T06:54:29;9.52;;;6.45;;
68300;SDS011;55146;47.468;18.806;2023-07-16T06:56:54;9.70;;;7.00;;
68300;SDS011;55146;47.468;18.806;2023-07-16T06:59:19;9.50;;;6.53;;
68300;SDS011;55146;47.468;18.806;2023-07-16T07:01:45;11.43;;;6.77;;
68300;SDS011;55146;47.468;18.806;2023-07-16T07:04:11;8.88;;;6.12;;
68300;SDS011;55146;47.468;18.806;2023-07-16T07:06:36;8.57;;;6.43;;
68300;SDS011;55146;47.468;18.806;2023-07-16T07:09:03;10.52;;;6.93;;
68300;SDS011;55146;47.468;18.806;2023-07-16T07:11:28;8.23;;;5.97;;
68300;SDS011;55146;47.468;18.806;2023-07-16T07:13:53;8.90;;;6.57;;
68300;SDS011;55146;47.468;18.806;2023-07-16T07:16:19;8.90;;;7.17;;
68300;SDS011;55146;47.468;18.806;2023-07-16T07:18:44;9.17;;;6.30;;
68300;SDS011;55146;47.468;18.806;2023-07-16T07:21:10;7.87;;;6.30;;
68300;SDS011;55146;47.468;18.806;2023-07-16T07:23:35;9.02;;;6.28;;
68300;SDS011;55146;47.468;18.806;2023-07-16T07:26:01;11.07;;;5.93;;
68300;SDS011;55146;47.468;18.806;2023-07-16T07:28:26;9.17;;;7.00;;
68300;SDS011;55146;47.468;18.806;2023-07-16T07:30:52;9.27;;;6.37;;
68300;SDS011;55146;47.468;18.806;2023-07-16T07:33:17;10.33;;;6.13;;
68300;SDS011;55146;47.468;18.806;2023-07-16T07:35:43;10.73;;;6.83;;
68300;SDS011;55146;47.468;18.806;2023-07-16T07:38:09;7.45;;;5.80;;
68300;SDS011;55146;47.468;18.806;2023-07-16T07:40:34;7.80;;;6.87;;
68300;SDS011;55146;47.468;18.806;2023-07-16T07:42:59;9.80;;;6.83;;
68300;SDS011;55146;47.468;18.806;2023-07-16T07:45:25;10.38;;;6.47;;
68300;SDS011;55146;47.468;18.806;2023-07-16T07:47:50;12.40;;;6.47;;
68300;SDS011;55146;47.468;18.806;2023-07-16T07:50:16;11.30;;;6.00;;
68300;SDS011;55146;47.468;18.806;2023-07-16T07:52:41;10.13;;;5.70;;
68300;SDS011;55146;47.468;18.806;2023-07-16T07:55:07;10.33;;;5.50;;
68300;SDS011;55146;47.468;18.806;2023-07-16T07:57:32;8.67;;;5.30;;
68300;SDS011;55146;47.468;18.806;2023-07-16T07:59:58;10.93;;;6.20;;
68300;SDS011;55146;47.468;18.806;2023-07-16T08:02:24;9.80;;;6.17;;
68300;SDS011;55146;47.468;18.806;2023-07-16T08:04:53;7.70;;;5.73;;
68300;SDS011;55146;47.468;18.806;2023-07-16T08:07:19;9.98;;;5.50;;
68300;SDS011;55146;47.468;18.806;2023-07-16T08:09:45;13.45;;;6.20;;
68300;SDS011;55146;47.468;18.806;2023-07-16T08:12:11;9.77;;;5.75;;
68300;SDS011;55146;47.468;18.806;2023-07-16T08:14:36;8.07;;;4.83;;
68300;SDS011;55146;47.468;18.806;2023-07-16T08:17:02;7.53;;;5.37;;
68300;SDS011;55146;47.468;18.806;2023-07-16T08:19:27;12.30;;;6.00;;
68300;SDS011;55146;47.468;18.806;2023-07-16T08:21:53;11.93;;;6.62;;
68300;SDS011;55146;47.468;18.806;2023-07-16T08:24:18;10.37;;;5.50;;
68300;SDS011;55146;47.468;18.806;2023-07-16T08:26:44;10.27;;;6.00;;
68300;SDS011;55146;47.468;18.806;2023-07-16T08:29:10;10.05;;;5.80;;
68300;SDS011;55146;47.468;18.806;2023-07-16T08:31:35;7.50;;;5.53;;
68300;SDS011;55146;47.468;18.806;2023-07-16T08:34:00;8.00;;;6.17;;
68300;SDS011;55146;47.468;18.806;2023-07-16T08:36:26;7.80;;;5.63;;
68300;SDS011;55146;47.468;18.806;2023-07-16T08:38:51;13.57;;;6.30;;
68300;SDS011;55146;47.468;18.806;2023-07-16T08:41:16;9.90;;;6.25;;
68300;SDS011;55146;47.468;18.806;2023-07-16T08:44:00;11.23;;;6.53;;
68300;SDS011;55146;47.468;18.806;2023-07-16T08:46:26;8.20;;;5.47;;
68300;SDS011;55146;47.468;18.806;2023-07-16T08:48:52;7.53;;;5.10;;
68300;SDS011;55146;47.468;18.806;2023-07-16T08:51:18;10.20;;;5.97;;
68300;SDS011;55146;47.468;18.806;2023-07-16T08:53:46;9.48;;;6.07;;
68300;SDS011;55146;47.468;18.806;2023-07-16T08:56:12;9.40;;;6.15;;
68300;SDS011;55146;47.468;18.806;2023-07-16T08:58:37;8.57;;;6.10;;
68300;SDS011;55146;47.468;18.806;2023-07-16T09:01:03;10.18;;;5.70;;
68300;SDS011;55146;47.468;18.806;2023-07-16T09:03:30;13.40;;;6.65;;
68300;SDS011;55146;47.468;18.806;2023-07-16T09:05:55;10.93;;;6.50;;
68300;SDS011;55146;47.468;18.806;2023-07-16T09:08:21;8.37;;;6.03;;
68300;SDS011;55146;47.468;18.806;2023-07-16T09:10:55;15.65;;;8.15;;
68300;SDS011;55146;47.468;18.806;2023-07-16T09:13:22;11.60;;;6.30;;
68300;SDS011;55146;47.468;18.806;2023-07-16T09:15:52;8.88;;;5.87;;
68300;SDS011;55146;47.468;18.806;2023-07-16T09:18:21;11.40;;;6.63;;
68300;SDS011;55146;47.468;18.806;2023-07-16T09:20:47;8.32;;;6.47;;
68300;SDS011;55146;47.468;18.806;2023-07-16T09:23:16;9.70;;;7.07;;
68300;SDS011;55146;47.468;18.806;2023-07-16T09:25:43;11.68;;;7.85;;
68300;SDS011;55146;47.468;18.806;2023-07-16T09:28:08;12.57;;;7.25;;
68300;SDS011;55146;47.468;18.806;2023-07-16T09:30:34;9.70;;;6.30;;
68300;SDS011;55146;47.468;18.806;2023-07-16T09:33:15;11.00;;;7.67;;
68300;SDS011;55146;47.468;18.806;2023-07-16T09:35:50;10.85;;;7.20;;
68300;SDS011;55146;47.468;18.806;2023-07-16T09:38:17;12.13;;;7.12;;
68300;SDS011;55146;47.468;18.806;2023-07-16T09:40:43;11.30;;;7.00;;
68300;SDS011;55146;47.468;18.806;2023-07-16T09:43:09;10.07;;;7.05;;
68300;SDS011;55146;47.468;18.806;2023-07-16T09:45:36;10.95;;;6.57;;
68300;SDS011;55146;47.468;18.806;2023-07-16T09:48:02;9.53;;;6.30;;
68300;SDS011;55146;47.468;18.806;2023-07-16T09:50:28;9.98;;;6.18;;
68300;SDS011;55146;47.468;18.806;2023-07-16T09:52:58;11.68;;;6.55;;
68300;SDS011;55146;47.468;18.806;2023-07-16T09:55:24;9.53;;;6.83;;
68300;SDS011;55146;47.468;18.806;2023-07-16T09:57:55;15.07;;;7.05;;
68300;SDS011;55146;47.468;18.806;2023-07-16T10:00:22;8.48;;;6.00;;
68300;SDS011;55146;47.468;18.806;2023-07-16T10:02:49;9.45;;;6.45;;
68300;SDS011;55146;47.468;18.806;2023-07-16T10:07:59;9.15;;;6.32;;
68300;SDS011;55146;47.468;18.806;2023-07-16T10:10:26;9.60;;;5.43;;
68300;SDS011;55146;47.468;18.806;2023-07-16T10:13:03;12.68;;;6.53;;
68300;SDS011;55146;47.468;18.806;2023-07-16T10:15:29;9.43;;;5.97;;
68300;SDS011;55146;47.468;18.806;2023-07-16T10:17:55;11.50;;;6.57;;
68300;SDS011;55146;47.468;18.806;2023-07-16T10:20:36;9.13;;;5.47;;
68300;SDS011;55146;47.468;18.806;2023-07-16T10:23:11;13.25;;;5.40;;
68300;SDS011;55146;47.468;18.806;2023-07-16T10:25:40;9.02;;;6.25;;
68300;SDS011;55146;47.468;18.806;2023-07-16T10:28:22;9.32;;;5.28;;
68300;SDS011;55146;47.468;18.806;2023-07-16T10:30:48;8.60;;;5.87;;
68300;SDS011;55146;47.468;18.806;2023-07-16T10:33:14;14.15;;;5.65;;
68300;SDS011;55146;47.468;18.806;2023-07-16T10:35:44;8.77;;;5.87;;
68300;SDS011;55146;47.468;18.806;2023-07-16T10:38:10;10.07;;;5.82;;
68300;SDS011;55146;47.468;18.806;2023-07-16T10:40:45;9.73;;;6.17;;
68300;SDS011;55146;47.468;18.806;2023-07-16T10:43:11;10.02;;;6.80;;
68300;SDS011;55146;47.468;18.806;2023-07-16T10:45:37;8.88;;;6.50;;
68300;SDS011;55146;47.468;18.806;2023-07-16T10:48:04;9.63;;;5.60;;
68300;SDS011;55146;47.468;18.806;2023-07-16T10:50:32;8.80;;;5.97;;
68300;SDS011;55146;47.468;18.806;2023-07-16T10:52:59;10.18;;;6.12;;
68300;SDS011;55146;47.468;18.806;2023-07-16T10:55:26;8.60;;;5.83;;
68300;SDS011;55146;47.468;18.806;2023-07-16T10:57:52;9.95;;;6.50;;
68300;SDS011;55146;47.468;18.806;2023-07-16T11:00:19;8.05;;;5.85;;
68300;SDS011;55146;47.468;18.806;2023-07-16T11:02:46;12.10;;;6.47;;
68300;SDS011;55146;47.468;18.806;2023-07-16T11:05:15;11.03;;;6.77;;
68300;SDS011;55146;47.468;18.806;2023-07-16T11:07:47;8.82;;;6.50;;
68300;SDS011;55146;47.468;18.806;2023-07-16T11:10:17;12.02;;;6.32;;
68300;SDS011;55146;47.468;18.806;2023-07-16T11:12:43;9.02;;;5.47;;
68300;SDS011;55146;47.468;18.806;2023-07-16T11:15:09;13.07;;;6.10;;
68300;SDS011;55146;47.468;18.806;2023-07-16T11:17:37;10.03;;;5.57;;
68300;SDS011;55146;47.468;18.806;2023-07-16T11:20:06;9.25;;;6.25;;
68300;SDS011;55146;47.468;18.806;2023-07-16T11:22:32;8.23;;;6.32;;
68300;SDS011;55146;47.468;18.806;2023-07-16T11:25:02;13.93;;;6.30;;
68300;SDS011;55146;47.468;18.806;2023-07-16T11:27:30;11.30;;;6.23;;
68300;SDS011;55146;47.468;18.806;2023-07-16T11:29:57;13.85;;;6.80;;
68300;SDS011;55146;47.468;18.806;2023-07-16T11:32:34;9.52;;;5.57;;
68300;SDS011;55146;47.468;18.806;2023-07-16T11:35:06;10.38;;;6.97;;
68300;SDS011;55146;47.468;18.806;2023-07-16T11:37:33;9.77;;;5.73;;
68300;SDS011;55146;47.468;18.806;2023-07-16T11:40:06;10.80;;;6.40;;
68300;SDS011;55146;47.468;18.806;2023-07-16T11:42:34;10.55;;;6.80;;
68300;SDS011;55146;47.468;18.806;2023-07-16T11:45:01;10.50;;;6.78;;
68300;SDS011;55146;47.468;18.806;2023-07-16T11:47:28;9.90;;;6.90;;
68300;SDS011;55146;47.468;18.806;2023-07-16T11:49:54;10.03;;;6.67;;
68300;SDS011;55146;47.468;18.806;2023-07-16T11:52:20;10.02;;;6.95;;
68300;SDS011;55146;47.468;18.806;2023-07-16T11:54:51;10.88;;;7.03;;
68300;SDS011;55146;47.468;18.806;2023-07-16T11:57:17;11.30;;;7.07;;
68300;SDS011;55146;47.468;18.806;2023-07-16T11:59:42;11.53;;;7.07;;
68300;SDS011;55146;47.468;18.806;2023-07-16T12:02:07;11.27;;;6.23;;
68300;SDS011;55146;47.468;18.806;2023-07-16T12:04:33;10.13;;;6.63;;
68300;SDS011;55146;47.468;18.806;2023-07-16T12:06:59;10.43;;;6.10;;
68300;SDS011;55146;47.468;18.806;2023-07-16T12:09:24;11.07;;;6.13;;
68300;SDS011;55146;47.468;18.806;2023-07-16T12:11:49;13.70;;;6.73;;
68300;SDS011;55146;47.468;18.806;2023-07-16T12:14:15;8.50;;;6.60;;
68300;SDS011;55146;47.468;18.806;2023-07-16T12:16:41;9.75;;;6.12;;
68300;SDS011;55146;47.468;18.806;2023-07-16T12:19:07;8.47;;;6.23;;
68300;SDS011;55146;47.468;18.806;2023-07-16T12:21:33;11.38;;;6.62;;
68300;SDS011;55146;47.468;18.806;2023-07-16T12:23:59;10.00;;;6.60;;
68300;SDS011;55146;47.468;18.806;2023-07-16T12:26:25;10.20;;;6.83;;
68300;SDS011;55146;47.468;18.806;2023-07-16T12:28:50;12.67;;;7.33;;
68300;SDS011;55146;47.468;18.806;2023-07-16T12:31:15;10.98;;;7.05;;
68300;SDS011;55146;47.468;18.806;2023-07-16T12:33:45;16.77;;;7.40;;
68300;SDS011;55146;47.468;18.806;2023-07-16T12:36:11;13.38;;;6.57;;
68300;SDS011;55146;47.468;18.806;2023-07-16T12:38:37;13.25;;;7.87;;
68300;SDS011;55146;47.468;18.806;2023-07-16T12:41:02;10.00;;;7.63;;
68300;SDS011;55146;47.468;18.806;2023-07-16T12:43:28;12.32;;;7.18;;
68300;SDS011;55146;47.468;18.806;2023-07-16T12:45:53;16.70;;;8.20;;
68300;SDS011;55146;47.468;18.806;2023-07-16T12:48:19;10.23;;;6.87;;
68300;SDS011;55146;47.468;18.806;2023-07-16T12:50:44;12.63;;;6.83;;
68300;SDS011;55146;47.468;18.806;2023-07-16T12:53:09;12.27;;;7.60;;
68300;SDS011;55146;47.468;18.806;2023-07-16T12:55:35;12.35;;;7.62;;
68300;SDS011;55146;47.468;18.806;2023-07-16T12:58:00;12.03;;;7.13;;
68300;SDS011;55146;47.468;18.806;2023-07-16T13:00:26;11.30;;;7.30;;
68300;SDS011;55146;47.468;18.806;2023-07-16T13:02:51;17.27;;;6.97;;
68300;SDS011;55146;47.468;18.806;2023-07-16T13:05:17;10.20;;;7.60;;
68300;SDS011;55146;47.468;18.806;2023-07-16T13:07:43;10.03;;;8.30;;
68300;SDS011;55146;47.468;18.806;2023-07-16T13:10:08;10.55;;;6.93;;
68300;SDS011;55146;47.468;18.806;2023-07-16T13:12:34;13.87;;;7.63;;
68300;SDS011;55146;47.468;18.806;2023-07-16T13:15:00;14.40;;;7.87;;
68300;SDS011;55146;47.468;18.806;2023-07-16T13:17:25;10.17;;;7.40;;
68300;SDS011;55146;47.468;18.806;2023-07-16T13:19:51;9.93;;;6.80;;
68300;SDS011;55146;47.468;18.806;2023-07-16T13:22:16;10.90;;;7.57;;
68300;SDS011;55146;47.468;18.806;2023-07-16T13:24:42;12.70;;;6.95;;
68300;SDS011;55146;47.468;18.806;2023-07-16T13:27:09;9.40;;;7.17;;
68300;SDS011;55146;47.468;18.806;2023-07-16T13:29:44;10.00;;;6.72;;
68300;SDS011;55146;47.468;18.806;2023-07-16T13:32:10;11.35;;;6.95;;
68300;SDS011;55146;47.468;18.806;2023-07-16T13:34:36;10.70;;;7.73;;
68300;SDS011;55146;47.468;18.806;2023-07-16T13:37:02;11.27;;;7.47;;
68300;SDS011;55146;47.468;18.806;2023-07-16T13:39:28;9.53;;;6.37;;
68300;SDS011;55146;47.468;18.806;2023-07-16T13:41:54;9.80;;;8.73;;
68300;SDS011;55146;47.468;18.806;2023-07-16T13:44:20;8.82;;;7.12;;
68300;SDS011;55146;47.468;18.806;2023-07-16T13:46:46;11.87;;;7.63;;
68300;SDS011;55146;47.468;18.806;2023-07-16T13:49:12;8.60;;;6.68;;
68300;SDS011;55146;47.468;18.806;2023-07-16T13:51:39;11.20;;;6.87;;
68300;SDS011;55146;47.468;18.806;2023-07-16T13:54:05;12.02;;;7.85;;
68300;SDS011;55146;47.468;18.806;2023-07-16T13:56:31;10.70;;;6.43;;
68300;SDS011;55146;47.468;18.806;2023-07-16T13:58:57;13.90;;;7.37;;
68300;SDS011;55146;47.468;18.806;2023-07-16T14:01:23;13.20;;;7.43;;
68300;SDS011;55146;47.468;18.806;2023-07-16T14:03:49;11.02;;;7.97;;
68300;SDS011;55146;47.468;18.806;2023-07-16T14:06:15;11.37;;;7.00;;
68300;SDS011;55146;47.468;18.806;2023-07-16T14:08:40;11.43;;;7.00;;
68300;SDS011;55146;47.468;18.806;2023-07-16T14:11:06;12.50;;;7.97;;
68300;SDS011;55146;47.468;18.806;2023-07-16T14:13:31;14.50;;;7.30;;
68300;SDS011;55146;47.468;18.806;2023-07-16T14:15:57;13.40;;;7.90;;
68300;SDS011;55146;47.468;18.806;2023-07-16T14:18:23;10.60;;;6.87;;
68300;SDS011;55146;47.468;18.806;2023-07-16T14:20:48;12.27;;;7.35;;
68300;SDS011;55146;47.468;18.806;2023-07-16T14:23:14;13.90;;;8.07;;
68300;SDS011;55146;47.468;18.806;2023-07-16T14:25:40;13.87;;;7.33;;